CTN380 LDZA-LDSP
Flight info
| Callsign | CTN380 |
|---|---|
| Flight time | 0h 37m |
| Altitude | 20000 |
| Route | NIVES Y137 PALEZ/N0400F190 L862 SPL |
| Aircraft | A319/M-SDE3FGHIRWY/LB1 |
Departure
| Time | 2026-04-27 12:37 |
|---|---|
| Airport | Zagreb Franjo Tuđman International Airport (LDZA) |
Arrival
| Time | 2026-04-27 13:14 |
|---|---|
| Airport | Split Saint Jerome Airport (LDSP) |
| Time | Latitude | Longitude | Altitude | Speed | Heading |
|---|---|---|---|---|---|
| 2026-04-27 12:06 | 45.74126 | 16.07754 | 363 ft | 0 kts | 136° |
| 2026-04-27 12:27 | 45.74127 | 16.07753 | 359 ft | 1 kts | 136° |
| 2026-04-27 12:27 | 45.74139 | 16.07738 | 364 ft | 3 kts | 140° |
| 2026-04-27 12:27 | 45.74155 | 16.07719 | 360 ft | 3 kts | 141° |
| 2026-04-27 12:27 | 45.74170 | 16.07701 | 362 ft | 3 kts | 136° |
| 2026-04-27 12:28 | 45.74184 | 16.07684 | 364 ft | 3 kts | 166° |
| 2026-04-27 12:28 | 45.74200 | 16.07685 | 365 ft | 3 kts | 217° |
| 2026-04-27 12:28 | 45.74209 | 16.07696 | 361 ft | 2 kts | 226° |
| 2026-04-27 12:28 | 45.74218 | 16.07710 | 365 ft | 1 kts | 226° |
| 2026-04-27 12:29 | 45.74219 | 16.07711 | 365 ft | 1 kts | 226° |
| 2026-04-27 12:31 | 45.74217 | 16.07708 | 366 ft | 1 kts | 226° |
| 2026-04-27 12:31 | 45.74208 | 16.07694 | 361 ft | 3 kts | 229° |
| 2026-04-27 12:31 | 45.74193 | 16.07669 | 362 ft | 4 kts | 229° |
| 2026-04-27 12:32 | 45.74171 | 16.07635 | 362 ft | 5 kts | 226° |
| 2026-04-27 12:32 | 45.74144 | 16.07594 | 360 ft | 6 kts | 226° |
| 2026-04-27 12:32 | 45.74110 | 16.07543 | 360 ft | 7 kts | 227° |
| 2026-04-27 12:32 | 45.74072 | 16.07484 | 363 ft | 9 kts | 229° |
| 2026-04-27 12:33 | 45.74071 | 16.07402 | 361 ft | 10 kts | 306° |
| 2026-04-27 12:33 | 45.74121 | 16.07333 | 359 ft | 11 kts | 317° |
| 2026-04-27 12:33 | 45.74179 | 16.07256 | 359 ft | 12 kts | 317° |
| 2026-04-27 12:33 | 45.74213 | 16.07154 | 359 ft | 12 kts | 252° |
| 2026-04-27 12:34 | 45.74153 | 16.07060 | 359 ft | 13 kts | 227° |
| 2026-04-27 12:34 | 45.74087 | 16.06960 | 363 ft | 14 kts | 226° |
| 2026-04-27 12:34 | 45.74015 | 16.06851 | 359 ft | 16 kts | 227° |
| 2026-04-27 12:34 | 45.73939 | 16.06734 | 359 ft | 17 kts | 227° |
| 2026-04-27 12:35 | 45.73854 | 16.06616 | 362 ft | 17 kts | 223° |
| 2026-04-27 12:35 | 45.73774 | 16.06484 | 359 ft | 17 kts | 226° |
| 2026-04-27 12:35 | 45.73764 | 16.06365 | 361 ft | 14 kts | 312° |
| 2026-04-27 12:35 | 45.73808 | 16.06305 | 360 ft | 8 kts | 316° |
| 2026-04-27 12:36 | 45.73850 | 16.06257 | 364 ft | 8 kts | 336° |
| 2026-04-27 12:36 | 45.73901 | 16.06281 | 367 ft | 9 kts | 45° |
| 2026-04-27 12:36 | 45.73903 | 16.06284 | 366 ft | 0 kts | 46° |
| 2026-04-27 12:37 | 45.73916 | 16.06303 | 361 ft | 11 kts | 46° |
| 2026-04-27 12:37 | 45.74179 | 16.06705 | 360 ft | 96 kts | 47° |
| 2026-04-27 12:37 | 45.74801 | 16.07645 | 391 ft | 157 kts | 47° |
| 2026-04-27 12:37 | 45.75421 | 16.08838 | 1156 ft | 147 kts | 65° |
| 2026-04-27 12:38 | 45.75805 | 16.10177 | 1938 ft | 145 kts | 73° |
| 2026-04-27 12:38 | 45.76011 | 16.11624 | 2541 ft | 159 kts | 86° |
| 2026-04-27 12:38 | 45.75975 | 16.13307 | 2933 ft | 181 kts | 95° |
| 2026-04-27 12:38 | 45.75686 | 16.15156 | 3519 ft | 202 kts | 103° |
| 2026-04-27 12:39 | 45.75357 | 16.17241 | 4000 ft | 227 kts | 103° |
| 2026-04-27 12:39 | 45.75014 | 16.19549 | 4723 ft | 244 kts | 102° |
| 2026-04-27 12:39 | 45.74655 | 16.21991 | 5551 ft | 256 kts | 102° |
| 2026-04-27 12:39 | 45.74282 | 16.24518 | 6481 ft | 265 kts | 103° |
| 2026-04-27 12:40 | 45.73893 | 16.27137 | 6864 ft | 270 kts | 103° |
| 2026-04-27 12:40 | 45.73349 | 16.29707 | 6988 ft | 270 kts | 116° |
| 2026-04-27 12:40 | 45.72340 | 16.31941 | 7007 ft | 267 kts | 134° |
| 2026-04-27 12:40 | 45.71004 | 16.33768 | 7010 ft | 266 kts | 140° |
| 2026-04-27 12:41 | 45.69645 | 16.35550 | 7014 ft | 265 kts | 141° |
| 2026-04-27 12:41 | 45.68073 | 16.36843 | 7011 ft | 259 kts | 168° |
| 2026-04-27 12:41 | 45.66312 | 16.36917 | 7017 ft | 256 kts | 197° |
| 2026-04-27 12:41 | 45.64705 | 16.35682 | 7460 ft | 271 kts | 226° |
| 2026-04-27 12:42 | 45.63407 | 16.33725 | 8551 ft | 273 kts | 229° |
| 2026-04-27 12:42 | 45.62099 | 16.31736 | 9625 ft | 277 kts | 229° |
| 2026-04-27 12:42 | 45.60773 | 16.29724 | 10613 ft | 280 kts | 229° |
| 2026-04-27 12:42 | 45.59426 | 16.27675 | 11546 ft | 285 kts | 229° |
| 2026-04-27 12:43 | 45.58058 | 16.25597 | 12462 ft | 290 kts | 229° |
| 2026-04-27 12:43 | 45.56666 | 16.23485 | 13398 ft | 294 kts | 229° |
| 2026-04-27 12:43 | 45.55253 | 16.21343 | 14277 ft | 299 kts | 229° |
| 2026-04-27 12:43 | 45.53815 | 16.19162 | 15085 ft | 304 kts | 229° |
| 2026-04-27 12:44 | 45.52357 | 16.16953 | 15881 ft | 308 kts | 229° |
| 2026-04-27 12:44 | 45.50879 | 16.14711 | 16658 ft | 313 kts | 229° |
| 2026-04-27 12:44 | 45.49376 | 16.12429 | 17429 ft | 318 kts | 230° |
| 2026-04-27 12:44 | 45.47848 | 16.10113 | 18212 ft | 323 kts | 230° |
| 2026-04-27 12:45 | 45.46296 | 16.07761 | 18845 ft | 331 kts | 230° |
| 2026-04-27 12:45 | 45.44664 | 16.05284 | 18995 ft | 354 kts | 230° |
| 2026-04-27 12:45 | 45.42924 | 16.02647 | 19113 ft | 376 kts | 229° |
| 2026-04-27 12:45 | 45.41083 | 15.99863 | 19255 ft | 395 kts | 229° |
| 2026-04-27 12:46 | 45.39173 | 15.96981 | 19689 ft | 404 kts | 229° |
| 2026-04-27 12:46 | 45.37151 | 15.94151 | 20073 ft | 411 kts | 223° |
| 2026-04-27 12:46 | 45.34802 | 15.91781 | 20171 ft | 422 kts | 213° |
| 2026-04-27 12:46 | 45.32086 | 15.89955 | 20188 ft | 442 kts | 202° |
| 2026-04-27 12:47 | 45.29062 | 15.88819 | 20187 ft | 457 kts | 191° |
| 2026-04-27 12:47 | 45.25872 | 15.88503 | 20185 ft | 463 kts | 180° |
| 2026-04-27 12:47 | 45.22655 | 15.88744 | 20182 ft | 462 kts | 181° |
| 2026-04-27 12:47 | 45.19463 | 15.88354 | 20182 ft | 460 kts | 192° |
| 2026-04-27 12:48 | 45.16381 | 15.87198 | 20170 ft | 457 kts | 201° |
| 2026-04-27 12:48 | 45.13450 | 15.85496 | 20180 ft | 456 kts | 205° |
| 2026-04-27 12:48 | 45.10523 | 15.83751 | 20176 ft | 456 kts | 205° |
| 2026-04-27 12:48 | 45.07595 | 15.82044 | 20174 ft | 456 kts | 204° |
| 2026-04-27 12:49 | 45.04653 | 15.80353 | 20175 ft | 456 kts | 204° |
| 2026-04-27 12:49 | 45.01712 | 15.78672 | 20171 ft | 456 kts | 204° |
| 2026-04-27 12:49 | 44.98775 | 15.76989 | 20169 ft | 456 kts | 204° |
| 2026-04-27 12:49 | 44.95839 | 15.75294 | 20176 ft | 456 kts | 204° |
| 2026-04-27 12:50 | 44.92903 | 15.73590 | 20172 ft | 456 kts | 204° |
| 2026-04-27 12:50 | 44.89970 | 15.71889 | 20168 ft | 456 kts | 204° |
| 2026-04-27 12:50 | 44.87032 | 15.70191 | 20157 ft | 456 kts | 204° |
| 2026-04-27 12:50 | 44.84098 | 15.68502 | 20149 ft | 456 kts | 204° |
| 2026-04-27 12:51 | 44.81162 | 15.66820 | 20145 ft | 456 kts | 204° |
| 2026-04-27 12:51 | 44.78224 | 15.65141 | 20155 ft | 456 kts | 204° |
| 2026-04-27 12:51 | 44.75290 | 15.63466 | 20140 ft | 456 kts | 204° |
| 2026-04-27 12:51 | 44.72350 | 15.61787 | 20153 ft | 456 kts | 204° |
| 2026-04-27 12:52 | 44.69414 | 15.60110 | 20144 ft | 455 kts | 204° |
| 2026-04-27 12:52 | 44.66478 | 15.58431 | 20144 ft | 455 kts | 204° |
| 2026-04-27 12:52 | 44.63519 | 15.56842 | 20135 ft | 457 kts | 199° |
| 2026-04-27 12:52 | 44.60402 | 15.55918 | 20135 ft | 460 kts | 188° |
| 2026-04-27 12:53 | 44.54017 | 15.56543 | 20141 ft | 465 kts | 166° |
| 2026-04-27 12:53 | 44.50978 | 15.58094 | 20143 ft | 466 kts | 155° |
| 2026-04-27 12:53 | 44.48097 | 15.60176 | 20143 ft | 467 kts | 153° |
| 2026-04-27 12:54 | 44.46187 | 15.61571 | 20127 ft | 467 kts | 153° |
| 2026-04-27 12:54 | 44.43269 | 15.63692 | 20118 ft | 467 kts | 153° |
| 2026-04-27 12:54 | 44.40380 | 15.65784 | 20126 ft | 467 kts | 153° |
| 2026-04-27 12:54 | 44.37492 | 15.67872 | 20129 ft | 467 kts | 153° |
| 2026-04-27 12:55 | 44.34606 | 15.69954 | 20133 ft | 468 kts | 154° |
| 2026-04-27 12:55 | 44.31712 | 15.72045 | 20128 ft | 468 kts | 153° |
| 2026-04-27 12:55 | 44.28827 | 15.74132 | 20122 ft | 468 kts | 153° |
| 2026-04-27 12:55 | 44.25939 | 15.76220 | 20127 ft | 467 kts | 153° |
| 2026-04-27 12:56 | 44.23088 | 15.78273 | 20133 ft | 467 kts | 153° |
| 2026-04-27 12:56 | 44.20199 | 15.80350 | 20143 ft | 467 kts | 154° |
| 2026-04-27 12:56 | 44.17272 | 15.82452 | 20142 ft | 467 kts | 154° |
| 2026-04-27 12:56 | 44.14422 | 15.84495 | 20141 ft | 467 kts | 154° |
| 2026-04-27 12:57 | 44.11498 | 15.86589 | 20140 ft | 467 kts | 154° |
| 2026-04-27 12:57 | 44.08649 | 15.88632 | 20139 ft | 467 kts | 154° |
| 2026-04-27 12:57 | 44.05764 | 15.90701 | 20130 ft | 467 kts | 154° |
| 2026-04-27 12:57 | 44.02877 | 15.92769 | 20134 ft | 467 kts | 154° |
| 2026-04-27 12:58 | 43.99991 | 15.94835 | 20135 ft | 466 kts | 154° |
| 2026-04-27 12:58 | 43.97107 | 15.96898 | 20137 ft | 466 kts | 154° |
| 2026-04-27 12:58 | 43.94221 | 15.98959 | 20138 ft | 466 kts | 154° |
| 2026-04-27 12:58 | 43.91331 | 16.01020 | 19956 ft | 467 kts | 154° |
| 2026-04-27 12:59 | 43.88450 | 16.03070 | 19715 ft | 464 kts | 154° |
| 2026-04-27 12:59 | 43.85584 | 16.05104 | 19475 ft | 462 kts | 154° |
| 2026-04-27 12:59 | 43.82734 | 16.07128 | 18863 ft | 457 kts | 154° |
| 2026-04-27 12:59 | 43.79900 | 16.09141 | 17790 ft | 456 kts | 154° |
| 2026-04-27 13:00 | 43.77105 | 16.11125 | 16942 ft | 449 kts | 154° |
| 2026-04-27 13:00 | 43.74337 | 16.13089 | 16032 ft | 444 kts | 154° |
| 2026-04-27 13:00 | 43.71608 | 16.15021 | 15202 ft | 438 kts | 154° |
| 2026-04-27 13:00 | 43.68908 | 16.16927 | 14396 ft | 434 kts | 154° |
| 2026-04-27 13:01 | 43.66233 | 16.18812 | 13597 ft | 429 kts | 154° |
| 2026-04-27 13:01 | 43.63603 | 16.20665 | 12841 ft | 422 kts | 154° |
| 2026-04-27 13:01 | 43.60996 | 16.22499 | 12112 ft | 416 kts | 154° |
| 2026-04-27 13:01 | 43.58432 | 16.24306 | 11525 ft | 408 kts | 153° |
| 2026-04-27 13:02 | 43.55977 | 16.26039 | 11394 ft | 385 kts | 153° |
| 2026-04-27 13:02 | 43.53653 | 16.27678 | 11268 ft | 365 kts | 153° |
| 2026-04-27 13:02 | 43.51453 | 16.29222 | 11150 ft | 346 kts | 153° |
| 2026-04-27 13:02 | 43.49327 | 16.30691 | 11024 ft | 330 kts | 155° |
| 2026-04-27 13:03 | 43.47277 | 16.31956 | 10897 ft | 315 kts | 158° |
| 2026-04-27 13:03 | 43.45308 | 16.33064 | 10598 ft | 299 kts | 159° |
| 2026-04-27 13:03 | 43.43400 | 16.34096 | 10169 ft | 293 kts | 159° |
| 2026-04-27 13:03 | 43.41524 | 16.35106 | 9926 ft | 286 kts | 159° |
| 2026-04-27 13:04 | 43.39675 | 16.36113 | 9796 ft | 286 kts | 158° |
| 2026-04-27 13:04 | 43.37831 | 16.37129 | 9666 ft | 285 kts | 158° |
| 2026-04-27 13:04 | 43.35971 | 16.37969 | 9297 ft | 285 kts | 170° |
| 2026-04-27 13:04 | 43.33986 | 16.38046 | 8905 ft | 282 kts | 187° |
| 2026-04-27 13:05 | 43.32110 | 16.37293 | 8451 ft | 282 kts | 207° |
| 2026-04-27 13:05 | 43.30629 | 16.35551 | 7969 ft | 284 kts | 233° |
| 2026-04-27 13:05 | 43.29806 | 16.33099 | 7550 ft | 284 kts | 256° |
| 2026-04-27 13:05 | 43.29645 | 16.30401 | 7008 ft | 284 kts | 270° |
| 2026-04-27 13:06 | 43.29868 | 16.27720 | 6471 ft | 283 kts | 285° |
| 2026-04-27 13:06 | 43.30700 | 16.25319 | 5911 ft | 283 kts | 306° |
| 2026-04-27 13:06 | 43.32104 | 16.23458 | 5356 ft | 282 kts | 327° |
| 2026-04-27 13:06 | 43.33926 | 16.22571 | 4823 ft | 278 kts | 358° |
| 2026-04-27 13:07 | 43.35744 | 16.22984 | 4740 ft | 256 kts | 24° |
| 2026-04-27 13:07 | 43.37139 | 16.24301 | 4674 ft | 235 kts | 50° |
| 2026-04-27 13:07 | 43.38121 | 16.25998 | 4584 ft | 221 kts | 51° |
| 2026-04-27 13:07 | 43.39183 | 16.27439 | 4487 ft | 208 kts | 43° |
| 2026-04-27 13:08 | 43.40255 | 16.28743 | 4258 ft | 204 kts | 43° |
| 2026-04-27 13:08 | 43.41299 | 16.30019 | 3930 ft | 197 kts | 44° |
| 2026-04-27 13:08 | 43.42306 | 16.31246 | 3652 ft | 187 kts | 44° |
| 2026-04-27 13:08 | 43.43226 | 16.32362 | 3414 ft | 165 kts | 43° |
| 2026-04-27 13:09 | 43.44042 | 16.33348 | 3166 ft | 149 kts | 46° |
| 2026-04-27 13:09 | 43.44793 | 16.34257 | 2974 ft | 142 kts | 47° |
| 2026-04-27 13:09 | 43.45527 | 16.35148 | 2784 ft | 140 kts | 45° |
| 2026-04-27 13:09 | 43.46250 | 16.36029 | 2592 ft | 139 kts | 46° |
| 2026-04-27 13:10 | 43.46973 | 16.36910 | 2401 ft | 138 kts | 44° |
| 2026-04-27 13:10 | 43.47691 | 16.37785 | 2202 ft | 138 kts | 44° |
| 2026-04-27 13:10 | 43.48408 | 16.38658 | 2018 ft | 138 kts | 47° |
| 2026-04-27 13:10 | 43.49127 | 16.39542 | 1838 ft | 136 kts | 44° |
| 2026-04-27 13:11 | 43.49855 | 16.40419 | 1648 ft | 141 kts | 37° |
| 2026-04-27 13:11 | 43.50745 | 16.40915 | 1535 ft | 140 kts | 7° |
| 2026-04-27 13:11 | 43.51691 | 16.40841 | 1340 ft | 135 kts | 336° |
| 2026-04-27 13:11 | 43.52595 | 16.40531 | 1195 ft | 134 kts | 341° |
| 2026-04-27 13:12 | 43.53462 | 16.40101 | 1051 ft | 132 kts | 323° |
| 2026-04-27 13:12 | 43.54080 | 16.39242 | 842 ft | 124 kts | 300° |
| 2026-04-27 13:12 | 43.54580 | 16.38284 | 723 ft | 121 kts | 294° |
| 2026-04-27 13:12 | 43.54872 | 16.37220 | 664 ft | 118 kts | 287° |
| 2026-04-27 13:13 | 43.55123 | 16.36124 | 657 ft | 121 kts | 282° |
| 2026-04-27 13:13 | 43.55325 | 16.34993 | 648 ft | 124 kts | 287° |
| 2026-04-27 13:13 | 43.55456 | 16.33845 | 535 ft | 118 kts | 272° |
| 2026-04-27 13:13 | 43.55340 | 16.32731 | 425 ft | 119 kts | 251° |
| 2026-04-27 13:14 | 43.54956 | 16.31716 | 221 ft | 119 kts | 237° |
| 2026-04-27 13:14 | 43.54456 | 16.30808 | 111 ft | 116 kts | 233° |
| 2026-04-27 13:14 | 43.53989 | 16.29987 | 78 ft | 88 kts | 233° |
| 2026-04-27 13:14 | 43.53746 | 16.29531 | 87 ft | 29 kts | 231° |
| 2026-04-27 13:15 | 43.53700 | 16.29516 | 84 ft | 4 kts | 97° |
| 2026-04-27 13:15 | 43.53694 | 16.29549 | 85 ft | 4 kts | 108° |
| 2026-04-27 13:15 | 43.53689 | 16.29585 | 87 ft | 4 kts | 98° |
| 2026-04-27 13:15 | 43.53679 | 16.29584 | 87 ft | 2 kts | 201° |
| 2026-04-27 13:16 | 43.53658 | 16.29574 | 86 ft | 5 kts | 194° |
| 2026-04-27 13:16 | 43.53619 | 16.29590 | 85 ft | 8 kts | 147° |
| 2026-04-27 13:16 | 43.53566 | 16.29644 | 82 ft | 8 kts | 145° |
| 2026-04-27 13:16 | 43.53542 | 16.29669 | 82 ft | 1 kts | 142° |
| 2026-04-27 13:17 | 43.53542 | 16.29687 | 80 ft | 2 kts | 74° |
| 2026-04-27 13:17 | 43.53551 | 16.29717 | 83 ft | 4 kts | 75° |
| 2026-04-27 13:17 | 43.53551 | 16.29726 | 82 ft | 0 kts | 85° |
| 2026-04-27 13:19 | 43.53549 | 16.29736 | 80 ft | 0 kts | 176° |